sensor_id;sensor_type;location;lat;lon;timestamp;P1;durP1;ratioP1;P2;durP2;ratioP2
1523;SDS011;755;53.658;10.118;2023-02-01T00:02:22;45.97;;;4.05;;
1523;SDS011;755;53.658;10.118;2023-02-01T00:12:26;40.22;;;4.45;;
1523;SDS011;755;53.658;10.118;2023-02-01T00:22:28;27.70;;;4.35;;
1523;SDS011;755;53.658;10.118;2023-02-01T00:32:31;30.05;;;4.25;;
1523;SDS011;755;53.658;10.118;2023-02-01T00:42:33;56.90;;;5.93;;
1523;SDS011;755;53.658;10.118;2023-02-01T00:52:36;57.75;;;4.85;;
1523;SDS011;755;53.658;10.118;2023-02-01T01:02:38;59.13;;;5.65;;
1523;SDS011;755;53.658;10.118;2023-02-01T01:12:41;45.33;;;6.75;;
1523;SDS011;755;53.658;10.118;2023-02-01T01:22:43;61.83;;;6.50;;
1523;SDS011;755;53.658;10.118;2023-02-01T01:32:47;48.05;;;6.43;;
1523;SDS011;755;53.658;10.118;2023-02-01T01:42:49;53.30;;;5.88;;
1523;SDS011;755;53.658;10.118;2023-02-01T01:52:55;66.85;;;6.40;;
1523;SDS011;755;53.658;10.118;2023-02-01T02:03:00;69.88;;;6.13;;
1523;SDS011;755;53.658;10.118;2023-02-01T02:13:08;38.85;;;5.40;;
1523;SDS011;755;53.658;10.118;2023-02-01T02:34:01;55.05;;;6.75;;
1523;SDS011;755;53.658;10.118;2023-02-01T02:44:12;57.78;;;6.88;;
1523;SDS011;755;53.658;10.118;2023-02-01T02:54:40;39.87;;;4.93;;
1523;SDS011;755;53.658;10.118;2023-02-01T03:04:51;53.35;;;5.93;;
1523;SDS011;755;53.658;10.118;2023-02-01T03:14:59;34.10;;;5.22;;
1523;SDS011;755;53.658;10.118;2023-02-01T03:25:08;37.70;;;4.35;;
1523;SDS011;755;53.658;10.118;2023-02-01T03:35:15;26.92;;;3.47;;
1523;SDS011;755;53.658;10.118;2023-02-01T03:45:18;32.17;;;4.43;;
1523;SDS011;755;53.658;10.118;2023-02-01T03:55:25;41.05;;;4.70;;
1523;SDS011;755;53.658;10.118;2023-02-01T04:05:29;38.83;;;4.20;;
1523;SDS011;755;53.658;10.118;2023-02-01T04:15:32;45.08;;;4.10;;
1523;SDS011;755;53.658;10.118;2023-02-01T04:25:35;29.50;;;4.03;;
1523;SDS011;755;53.658;10.118;2023-02-01T04:35:38;14.95;;;1.70;;
1523;SDS011;755;53.658;10.118;2023-02-01T04:45:40;27.48;;;3.67;;
1523;SDS011;755;53.658;10.118;2023-02-01T04:55:43;20.50;;;3.65;;
1523;SDS011;755;53.658;10.118;2023-02-01T05:05:46;20.30;;;1.98;;
1523;SDS011;755;53.658;10.118;2023-02-01T05:15:51;18.48;;;1.80;;
1523;SDS011;755;53.658;10.118;2023-02-01T05:25:57;6.95;;;1.50;;
1523;SDS011;755;53.658;10.118;2023-02-01T05:36:01;11.82;;;1.73;;
1523;SDS011;755;53.658;10.118;2023-02-01T05:46:04;12.32;;;0.70;;
1523;SDS011;755;53.658;10.118;2023-02-01T05:56:07;7.28;;;0.93;;
1523;SDS011;755;53.658;10.118;2023-02-01T06:06:09;2.83;;;0.90;;
1523;SDS011;755;53.658;10.118;2023-02-01T06:16:13;2.15;;;0.63;;
1523;SDS011;755;53.658;10.118;2023-02-01T06:26:15;6.07;;;0.77;;
1523;SDS011;755;53.658;10.118;2023-02-01T06:36:19;6.95;;;1.17;;
1523;SDS011;755;53.658;10.118;2023-02-01T06:46:22;3.92;;;0.90;;
1523;SDS011;755;53.658;10.118;2023-02-01T06:56:25;12.00;;;1.85;;
1523;SDS011;755;53.658;10.118;2023-02-01T07:06:28;25.33;;;2.22;;
1523;SDS011;755;53.658;10.118;2023-02-01T07:16:31;13.88;;;2.22;;
1523;SDS011;755;53.658;10.118;2023-02-01T07:26:33;21.70;;;2.58;;
1523;SDS011;755;53.658;10.118;2023-02-01T07:36:37;33.83;;;3.30;;
1523;SDS011;755;53.658;10.118;2023-02-01T07:46:39;46.80;;;5.18;;
1523;SDS011;755;53.658;10.118;2023-02-01T07:56:42;37.33;;;4.63;;
1523;SDS011;755;53.658;10.118;2023-02-01T08:06:44;29.75;;;3.30;;
1523;SDS011;755;53.658;10.118;2023-02-01T08:16:48;46.58;;;5.35;;
1523;SDS011;755;53.658;10.118;2023-02-01T08:26:50;55.72;;;5.22;;
1523;SDS011;755;53.658;10.118;2023-02-01T08:36:53;48.13;;;5.53;;
1523;SDS011;755;53.658;10.118;2023-02-01T08:47:03;42.67;;;4.32;;
1523;SDS011;755;53.658;10.118;2023-02-01T09:07:13;34.63;;;3.70;;
1523;SDS011;755;53.658;10.118;2023-02-01T09:17:18;27.35;;;3.20;;
1523;SDS011;755;53.658;10.118;2023-02-01T09:27:23;29.27;;;3.83;;
1523;SDS011;755;53.658;10.118;2023-02-01T09:37:27;40.22;;;5.03;;
1523;SDS011;755;53.658;10.118;2023-02-01T09:47:29;45.97;;;4.50;;
1523;SDS011;755;53.658;10.118;2023-02-01T09:57:39;58.53;;;5.60;;
1523;SDS011;755;53.658;10.118;2023-02-01T10:07:51;30.75;;;5.45;;
1523;SDS011;755;53.658;10.118;2023-02-01T10:28:30;39.40;;;5.28;;
1523;SDS011;755;53.658;10.118;2023-02-01T10:38:43;43.85;;;3.55;;
1523;SDS011;755;53.658;10.118;2023-02-01T10:48:50;30.33;;;3.22;;
1523;SDS011;755;53.658;10.118;2023-02-01T10:59:01;40.00;;;4.15;;
1523;SDS011;755;53.658;10.118;2023-02-01T11:09:14;40.90;;;3.78;;
1523;SDS011;755;53.658;10.118;2023-02-01T11:19:26;21.60;;;3.27;;
1523;SDS011;755;53.658;10.118;2023-02-01T11:29:35;36.50;;;4.45;;
1523;SDS011;755;53.658;10.118;2023-02-01T11:39:42;35.22;;;4.38;;
1523;SDS011;755;53.658;10.118;2023-02-01T11:49:55;36.30;;;4.47;;
1523;SDS011;755;53.658;10.118;2023-02-01T12:00:10;36.58;;;4.15;;
1523;SDS011;755;53.658;10.118;2023-02-01T12:10:33;29.08;;;2.90;;
1523;SDS011;755;53.658;10.118;2023-02-01T12:31:15;21.40;;;3.20;;
1523;SDS011;755;53.658;10.118;2023-02-01T12:41:45;15.13;;;1.83;;
1523;SDS011;755;53.658;10.118;2023-02-01T12:51:55;8.88;;;1.23;;
1523;SDS011;755;53.658;10.118;2023-02-01T13:02:08;10.00;;;0.85;;
1523;SDS011;755;53.658;10.118;2023-02-01T13:12:19;3.08;;;0.85;;
1523;SDS011;755;53.658;10.118;2023-02-01T13:22:36;1.15;;;0.30;;
1523;SDS011;755;53.658;10.118;2023-02-01T13:43:21;5.03;;;0.70;;
1523;SDS011;755;53.658;10.118;2023-02-01T13:53:27;7.15;;;0.75;;
1523;SDS011;755;53.658;10.118;2023-02-01T14:03:43;7.37;;;0.90;;
1523;SDS011;755;53.658;10.118;2023-02-01T14:13:46;13.02;;;2.20;;
1523;SDS011;755;53.658;10.118;2023-02-01T14:23:59;7.75;;;1.42;;
1523;SDS011;755;53.658;10.118;2023-02-01T14:34:13;14.43;;;1.70;;
1523;SDS011;755;53.658;10.118;2023-02-01T14:44:27;10.65;;;1.48;;
1523;SDS011;755;53.658;10.118;2023-02-01T14:54:42;19.33;;;1.90;;
1523;SDS011;755;53.658;10.118;2023-02-01T15:04:55;32.92;;;2.35;;
1523;SDS011;755;53.658;10.118;2023-02-01T15:15:10;24.23;;;1.90;;
1523;SDS011;755;53.658;10.118;2023-02-01T15:25:27;23.27;;;2.47;;
1523;SDS011;755;53.658;10.118;2023-02-01T15:35:38;19.15;;;3.45;;
1523;SDS011;755;53.658;10.118;2023-02-01T15:45:45;23.40;;;2.50;;
1523;SDS011;755;53.658;10.118;2023-02-01T15:55:51;25.55;;;2.90;;
1523;SDS011;755;53.658;10.118;2023-02-01T16:06:02;20.43;;;2.57;;
1523;SDS011;755;53.658;10.118;2023-02-01T16:16:07;24.23;;;3.45;;
1523;SDS011;755;53.658;10.118;2023-02-01T16:26:15;47.72;;;3.97;;
1523;SDS011;755;53.658;10.118;2023-02-01T16:36:21;30.92;;;4.22;;
1523;SDS011;755;53.658;10.118;2023-02-01T16:46:26;19.27;;;3.53;;
1523;SDS011;755;53.658;10.118;2023-02-01T16:56:34;28.33;;;4.20;;
1523;SDS011;755;53.658;10.118;2023-02-01T17:06:38;47.28;;;5.32;;
1523;SDS011;755;53.658;10.118;2023-02-01T17:16:44;54.35;;;7.10;;
1523;SDS011;755;53.658;10.118;2023-02-01T17:26:51;58.42;;;6.70;;
1523;SDS011;755;53.658;10.118;2023-02-01T17:36:53;46.47;;;4.82;;
1523;SDS011;755;53.658;10.118;2023-02-01T17:46:57;49.97;;;5.40;;
1523;SDS011;755;53.658;10.118;2023-02-01T17:57:04;52.90;;;5.78;;
1523;SDS011;755;53.658;10.118;2023-02-01T18:07:13;51.05;;;5.70;;
1523;SDS011;755;53.658;10.118;2023-02-01T18:17:21;55.15;;;5.97;;
1523;SDS011;755;53.658;10.118;2023-02-01T18:27:25;56.78;;;5.80;;
1523;SDS011;755;53.658;10.118;2023-02-01T18:37:29;37.05;;;5.30;;
1523;SDS011;755;53.658;10.118;2023-02-01T18:47:33;51.10;;;4.28;;
1523;SDS011;755;53.658;10.118;2023-02-01T18:57:35;60.25;;;5.93;;
1523;SDS011;755;53.658;10.118;2023-02-01T19:07:39;53.38;;;5.80;;
1523;SDS011;755;53.658;10.118;2023-02-01T19:17:43;44.47;;;5.55;;
1523;SDS011;755;53.658;10.118;2023-02-01T19:27:48;50.20;;;5.55;;
1523;SDS011;755;53.658;10.118;2023-02-01T19:37:51;39.13;;;4.43;;
1523;SDS011;755;53.658;10.118;2023-02-01T19:47:57;14.13;;;2.05;;
1523;SDS011;755;53.658;10.118;2023-02-01T19:58:02;16.27;;;1.92;;
1523;SDS011;755;53.658;10.118;2023-02-01T20:08:06;19.48;;;2.67;;
1523;SDS011;755;53.658;10.118;2023-02-01T20:18:09;21.15;;;2.38;;
1523;SDS011;755;53.658;10.118;2023-02-01T20:28:12;36.35;;;4.13;;
1523;SDS011;755;53.658;10.118;2023-02-01T20:38:14;32.90;;;4.00;;
1523;SDS011;755;53.658;10.118;2023-02-01T20:48:18;53.67;;;5.63;;
1523;SDS011;755;53.658;10.118;2023-02-01T20:58:20;37.65;;;4.32;;
1523;SDS011;755;53.658;10.118;2023-02-01T21:08:24;45.47;;;4.53;;
1523;SDS011;755;53.658;10.118;2023-02-01T21:18:28;41.55;;;5.30;;
1523;SDS011;755;53.658;10.118;2023-02-01T21:28:42;48.58;;;5.60;;
1523;SDS011;755;53.658;10.118;2023-02-01T21:39:08;34.00;;;4.45;;
1523;SDS011;755;53.658;10.118;2023-02-01T21:49:12;51.92;;;4.72;;
1523;SDS011;755;53.658;10.118;2023-02-01T21:59:15;42.83;;;4.03;;
1523;SDS011;755;53.658;10.118;2023-02-01T22:09:19;21.70;;;4.05;;
1523;SDS011;755;53.658;10.118;2023-02-01T22:19:22;43.65;;;4.47;;
1523;SDS011;755;53.658;10.118;2023-02-01T22:29:26;47.30;;;5.53;;
1523;SDS011;755;53.658;10.118;2023-02-01T22:39:28;49.30;;;5.32;;
1523;SDS011;755;53.658;10.118;2023-02-01T22:49:31;45.92;;;6.05;;
1523;SDS011;755;53.658;10.118;2023-02-01T22:59:33;45.17;;;5.45;;
1523;SDS011;755;53.658;10.118;2023-02-01T23:09:37;34.45;;;4.45;;
1523;SDS011;755;53.658;10.118;2023-02-01T23:19:39;45.33;;;4.53;;
1523;SDS011;755;53.658;10.118;2023-02-01T23:29:44;36.22;;;5.22;;
1523;SDS011;755;53.658;10.118;2023-02-01T23:39:46;55.00;;;5.97;;
1523;SDS011;755;53.658;10.118;2023-02-01T23:49:50;30.83;;;4.57;;
1523;SDS011;755;53.658;10.118;2023-02-01T23:59:52;30.17;;;3.38;;
